sensor_id;sensor_type;location;lat;lon;timestamp;P1;durP1;ratioP1;P2;durP2;ratioP2
74620;SDS011;64861;47.546;19.254;2023-03-19T00:02:02;7.50;;;3.92;;
74620;SDS011;64861;47.546;19.254;2023-03-19T00:04:28;8.38;;;3.90;;
74620;SDS011;64861;47.546;19.254;2023-03-19T00:06:53;7.43;;;3.72;;
74620;SDS011;64861;47.546;19.254;2023-03-19T00:09:19;7.45;;;3.75;;
74620;SDS011;64861;47.546;19.254;2023-03-19T00:11:45;6.57;;;3.50;;
74620;SDS011;64861;47.546;19.254;2023-03-19T00:14:12;6.32;;;3.78;;
74620;SDS011;64861;47.546;19.254;2023-03-19T00:16:38;7.85;;;3.70;;
74620;SDS011;64861;47.546;19.254;2023-03-19T00:19:03;7.65;;;3.55;;
74620;SDS011;64861;47.546;19.254;2023-03-19T00:21:29;6.75;;;3.90;;
74620;SDS011;64861;47.546;19.254;2023-03-19T00:23:56;7.13;;;4.10;;
74620;SDS011;64861;47.546;19.254;2023-03-19T00:26:28;6.82;;;3.95;;
74620;SDS011;64861;47.546;19.254;2023-03-19T00:28:55;7.80;;;4.22;;
74620;SDS011;64861;47.546;19.254;2023-03-19T00:31:21;8.63;;;4.22;;
74620;SDS011;64861;47.546;19.254;2023-03-19T00:33:47;7.78;;;4.20;;
74620;SDS011;64861;47.546;19.254;2023-03-19T00:36:13;8.90;;;3.75;;
74620;SDS011;64861;47.546;19.254;2023-03-19T00:38:40;7.28;;;3.78;;
74620;SDS011;64861;47.546;19.254;2023-03-19T00:41:07;6.50;;;3.78;;
74620;SDS011;64861;47.546;19.254;2023-03-19T00:43:33;7.80;;;4.18;;
74620;SDS011;64861;47.546;19.254;2023-03-19T00:45:59;6.18;;;3.58;;
74620;SDS011;64861;47.546;19.254;2023-03-19T00:48:24;7.00;;;3.58;;
74620;SDS011;64861;47.546;19.254;2023-03-19T00:50:50;8.68;;;4.10;;
74620;SDS011;64861;47.546;19.254;2023-03-19T00:53:15;7.13;;;3.92;;
74620;SDS011;64861;47.546;19.254;2023-03-19T00:55:41;6.50;;;3.50;;
74620;SDS011;64861;47.546;19.254;2023-03-19T00:58:07;7.95;;;4.15;;
74620;SDS011;64861;47.546;19.254;2023-03-19T01:00:34;7.07;;;3.72;;
74620;SDS011;64861;47.546;19.254;2023-03-19T01:03:00;7.60;;;4.43;;
74620;SDS011;64861;47.546;19.254;2023-03-19T01:05:26;6.47;;;3.63;;
74620;SDS011;64861;47.546;19.254;2023-03-19T01:07:52;6.75;;;3.63;;
74620;SDS011;64861;47.546;19.254;2023-03-19T01:10:18;6.57;;;3.65;;
74620;SDS011;64861;47.546;19.254;2023-03-19T01:12:45;7.30;;;3.97;;
74620;SDS011;64861;47.546;19.254;2023-03-19T01:15:11;6.65;;;3.83;;
74620;SDS011;64861;47.546;19.254;2023-03-19T01:17:36;6.85;;;4.00;;
74620;SDS011;64861;47.546;19.254;2023-03-19T01:20:02;7.00;;;3.90;;
74620;SDS011;64861;47.546;19.254;2023-03-19T01:22:34;6.60;;;3.95;;
74620;SDS011;64861;47.546;19.254;2023-03-19T01:25:01;7.20;;;4.05;;
74620;SDS011;64861;47.546;19.254;2023-03-19T01:27:27;8.25;;;3.95;;
74620;SDS011;64861;47.546;19.254;2023-03-19T01:29:52;5.82;;;3.55;;
74620;SDS011;64861;47.546;19.254;2023-03-19T01:32:18;7.47;;;3.78;;
74620;SDS011;64861;47.546;19.254;2023-03-19T01:34:43;9.18;;;4.03;;
74620;SDS011;64861;47.546;19.254;2023-03-19T01:37:09;7.70;;;4.22;;
74620;SDS011;64861;47.546;19.254;2023-03-19T01:39:34;12.43;;;3.83;;
74620;SDS011;64861;47.546;19.254;2023-03-19T01:42:01;6.80;;;3.60;;
74620;SDS011;64861;47.546;19.254;2023-03-19T01:44:34;6.05;;;3.60;;
74620;SDS011;64861;47.546;19.254;2023-03-19T01:47:03;6.88;;;3.83;;
74620;SDS011;64861;47.546;19.254;2023-03-19T01:49:32;6.85;;;3.70;;
74620;SDS011;64861;47.546;19.254;2023-03-19T01:51:59;6.95;;;3.72;;
74620;SDS011;64861;47.546;19.254;2023-03-19T01:54:28;6.22;;;3.55;;
74620;SDS011;64861;47.546;19.254;2023-03-19T01:57:00;6.28;;;3.70;;
74620;SDS011;64861;47.546;19.254;2023-03-19T01:59:29;7.40;;;3.88;;
74620;SDS011;64861;47.546;19.254;2023-03-19T02:02:04;6.78;;;3.42;;
74620;SDS011;64861;47.546;19.254;2023-03-19T02:04:34;6.47;;;4.00;;
74620;SDS011;64861;47.546;19.254;2023-03-19T02:07:02;6.30;;;3.70;;
74620;SDS011;64861;47.546;19.254;2023-03-19T02:09:28;6.32;;;3.35;;
74620;SDS011;64861;47.546;19.254;2023-03-19T02:11:54;6.68;;;3.58;;
74620;SDS011;64861;47.546;19.254;2023-03-19T02:14:21;6.70;;;3.60;;
74620;SDS011;64861;47.546;19.254;2023-03-19T02:16:47;6.80;;;4.10;;
74620;SDS011;64861;47.546;19.254;2023-03-19T02:19:14;7.13;;;3.58;;
74620;SDS011;64861;47.546;19.254;2023-03-19T02:21:44;7.45;;;3.83;;
74620;SDS011;64861;47.546;19.254;2023-03-19T02:24:21;6.32;;;3.83;;
74620;SDS011;64861;47.546;19.254;2023-03-19T02:26:52;5.75;;;3.35;;
74620;SDS011;64861;47.546;19.254;2023-03-19T02:29:19;6.68;;;3.83;;
74620;SDS011;64861;47.546;19.254;2023-03-19T02:31:45;6.80;;;3.67;;
74620;SDS011;64861;47.546;19.254;2023-03-19T02:36:48;6.22;;;3.80;;
74620;SDS011;64861;47.546;19.254;2023-03-19T02:39:26;6.28;;;3.55;;
74620;SDS011;64861;47.546;19.254;2023-03-19T02:41:57;8.20;;;4.05;;
74620;SDS011;64861;47.546;19.254;2023-03-19T02:44:23;6.05;;;3.60;;
74620;SDS011;64861;47.546;19.254;2023-03-19T02:46:50;6.40;;;3.50;;
74620;SDS011;64861;47.546;19.254;2023-03-19T02:49:15;6.93;;;3.38;;
74620;SDS011;64861;47.546;19.254;2023-03-19T02:51:41;6.63;;;3.63;;
74620;SDS011;64861;47.546;19.254;2023-03-19T02:54:07;6.40;;;3.47;;
74620;SDS011;64861;47.546;19.254;2023-03-19T02:56:32;7.10;;;3.88;;
74620;SDS011;64861;47.546;19.254;2023-03-19T02:58:58;6.47;;;3.67;;
74620;SDS011;64861;47.546;19.254;2023-03-19T03:01:23;6.10;;;3.53;;
74620;SDS011;64861;47.546;19.254;2023-03-19T03:03:49;5.93;;;3.63;;
74620;SDS011;64861;47.546;19.254;2023-03-19T03:06:15;5.70;;;3.40;;
74620;SDS011;64861;47.546;19.254;2023-03-19T03:08:42;5.78;;;3.17;;
74620;SDS011;64861;47.546;19.254;2023-03-19T03:11:07;6.80;;;3.45;;
74620;SDS011;64861;47.546;19.254;2023-03-19T03:13:33;6.13;;;3.58;;
74620;SDS011;64861;47.546;19.254;2023-03-19T03:15:59;7.20;;;3.65;;
74620;SDS011;64861;47.546;19.254;2023-03-19T03:18:24;6.78;;;3.20;;
74620;SDS011;64861;47.546;19.254;2023-03-19T03:20:49;6.20;;;3.35;;
74620;SDS011;64861;47.546;19.254;2023-03-19T03:23:16;6.00;;;3.63;;
74620;SDS011;64861;47.546;19.254;2023-03-19T03:25:41;6.20;;;3.65;;
74620;SDS011;64861;47.546;19.254;2023-03-19T03:28:07;7.25;;;3.28;;
74620;SDS011;64861;47.546;19.254;2023-03-19T03:30:33;5.93;;;3.65;;
74620;SDS011;64861;47.546;19.254;2023-03-19T03:32:58;7.40;;;3.67;;
74620;SDS011;64861;47.546;19.254;2023-03-19T03:35:24;5.53;;;3.25;;
74620;SDS011;64861;47.546;19.254;2023-03-19T03:37:49;5.60;;;3.33;;
74620;SDS011;64861;47.546;19.254;2023-03-19T03:40:16;5.25;;;3.15;;
74620;SDS011;64861;47.546;19.254;2023-03-19T03:42:42;5.55;;;3.13;;
74620;SDS011;64861;47.546;19.254;2023-03-19T03:45:08;5.80;;;3.30;;
74620;SDS011;64861;47.546;19.254;2023-03-19T03:47:34;5.65;;;3.50;;
74620;SDS011;64861;47.546;19.254;2023-03-19T03:50:01;5.57;;;3.10;;
74620;SDS011;64861;47.546;19.254;2023-03-19T03:52:29;6.82;;;3.70;;
74620;SDS011;64861;47.546;19.254;2023-03-19T03:54:59;5.60;;;3.25;;
74620;SDS011;64861;47.546;19.254;2023-03-19T03:57:24;6.50;;;3.40;;
74620;SDS011;64861;47.546;19.254;2023-03-19T03:59:50;5.82;;;3.10;;
74620;SDS011;64861;47.546;19.254;2023-03-19T04:02:16;5.18;;;3.10;;
74620;SDS011;64861;47.546;19.254;2023-03-19T04:04:42;5.60;;;3.22;;
74620;SDS011;64861;47.546;19.254;2023-03-19T04:07:08;5.80;;;2.88;;
74620;SDS011;64861;47.546;19.254;2023-03-19T04:09:33;6.38;;;3.42;;
74620;SDS011;64861;47.546;19.254;2023-03-19T04:11:59;5.70;;;3.08;;
74620;SDS011;64861;47.546;19.254;2023-03-19T04:14:25;5.85;;;3.10;;
74620;SDS011;64861;47.546;19.254;2023-03-19T04:16:51;6.30;;;3.40;;
74620;SDS011;64861;47.546;19.254;2023-03-19T04:19:16;6.63;;;3.20;;
74620;SDS011;64861;47.546;19.254;2023-03-19T04:21:43;5.43;;;2.95;;
74620;SDS011;64861;47.546;19.254;2023-03-19T04:24:08;5.20;;;2.75;;
74620;SDS011;64861;47.546;19.254;2023-03-19T04:26:35;5.57;;;3.10;;
74620;SDS011;64861;47.546;19.254;2023-03-19T04:29:01;4.95;;;2.80;;
74620;SDS011;64861;47.546;19.254;2023-03-19T04:31:27;5.45;;;2.97;;
74620;SDS011;64861;47.546;19.254;2023-03-19T04:33:53;5.85;;;2.90;;
74620;SDS011;64861;47.546;19.254;2023-03-19T04:36:19;6.15;;;3.20;;
74620;SDS011;64861;47.546;19.254;2023-03-19T04:38:45;5.43;;;3.00;;
74620;SDS011;64861;47.546;19.254;2023-03-19T04:41:11;6.20;;;2.67;;
74620;SDS011;64861;47.546;19.254;2023-03-19T04:43:38;5.20;;;3.00;;
74620;SDS011;64861;47.546;19.254;2023-03-19T04:46:04;4.80;;;2.75;;
74620;SDS011;64861;47.546;19.254;2023-03-19T04:48:30;5.10;;;2.83;;
74620;SDS011;64861;47.546;19.254;2023-03-19T04:50:57;4.68;;;2.67;;
74620;SDS011;64861;47.546;19.254;2023-03-19T04:53:23;7.40;;;3.10;;
74620;SDS011;64861;47.546;19.254;2023-03-19T04:55:48;5.97;;;2.80;;
74620;SDS011;64861;47.546;19.254;2023-03-19T04:58:14;5.10;;;2.78;;
74620;SDS011;64861;47.546;19.254;2023-03-19T05:00:40;4.68;;;2.60;;
74620;SDS011;64861;47.546;19.254;2023-03-19T05:03:06;6.95;;;2.90;;
74620;SDS011;64861;47.546;19.254;2023-03-19T05:05:31;5.32;;;2.85;;
74620;SDS011;64861;47.546;19.254;2023-03-19T05:07:57;5.28;;;2.80;;
74620;SDS011;64861;47.546;19.254;2023-03-19T05:10:22;5.68;;;2.80;;
74620;SDS011;64861;47.546;19.254;2023-03-19T05:12:48;6.20;;;2.90;;
74620;SDS011;64861;47.546;19.254;2023-03-19T05:15:13;5.45;;;2.50;;
74620;SDS011;64861;47.546;19.254;2023-03-19T05:17:39;4.97;;;2.70;;
74620;SDS011;64861;47.546;19.254;2023-03-19T05:20:05;4.35;;;2.60;;
74620;SDS011;64861;47.546;19.254;2023-03-19T05:22:31;4.80;;;2.60;;
74620;SDS011;64861;47.546;19.254;2023-03-19T05:24:57;5.60;;;2.95;;
74620;SDS011;64861;47.546;19.254;2023-03-19T05:27:22;4.88;;;2.70;;
74620;SDS011;64861;47.546;19.254;2023-03-19T05:29:49;5.13;;;2.70;;
74620;SDS011;64861;47.546;19.254;2023-03-19T05:32:14;5.82;;;3.30;;
74620;SDS011;64861;47.546;19.254;2023-03-19T05:34:40;4.57;;;2.47;;
74620;SDS011;64861;47.546;19.254;2023-03-19T05:37:06;6.43;;;2.90;;
74620;SDS011;64861;47.546;19.254;2023-03-19T05:39:32;6.10;;;2.90;;
74620;SDS011;64861;47.546;19.254;2023-03-19T05:41:58;5.22;;;2.50;;
74620;SDS011;64861;47.546;19.254;2023-03-19T05:44:23;5.13;;;2.60;;
74620;SDS011;64861;47.546;19.254;2023-03-19T05:46:48;6.10;;;2.70;;
74620;SDS011;64861;47.546;19.254;2023-03-19T05:49:14;4.80;;;2.50;;
74620;SDS011;64861;47.546;19.254;2023-03-19T05:51:39;5.13;;;2.70;;
74620;SDS011;64861;47.546;19.254;2023-03-19T05:54:05;5.25;;;2.80;;
74620;SDS011;64861;47.546;19.254;2023-03-19T05:56:31;4.85;;;2.60;;
74620;SDS011;64861;47.546;19.254;2023-03-19T05:58:57;5.85;;;2.83;;
74620;SDS011;64861;47.546;19.254;2023-03-19T06:01:22;4.18;;;2.50;;
74620;SDS011;64861;47.546;19.254;2023-03-19T06:03:48;5.07;;;2.35;;
74620;SDS011;64861;47.546;19.254;2023-03-19T06:06:14;4.88;;;2.63;;
74620;SDS011;64861;47.546;19.254;2023-03-19T06:08:40;5.65;;;2.58;;
74620;SDS011;64861;47.546;19.254;2023-03-19T06:11:06;6.93;;;2.70;;
74620;SDS011;64861;47.546;19.254;2023-03-19T06:13:32;4.25;;;2.45;;
74620;SDS011;64861;47.546;19.254;2023-03-19T06:15:58;5.90;;;2.72;;
74620;SDS011;64861;47.546;19.254;2023-03-19T06:18:23;4.90;;;2.28;;
74620;SDS011;64861;47.546;19.254;2023-03-19T06:20:49;5.30;;;2.50;;
74620;SDS011;64861;47.546;19.254;2023-03-19T06:23:15;5.03;;;2.50;;
74620;SDS011;64861;47.546;19.254;2023-03-19T06:25:40;5.20;;;2.55;;
74620;SDS011;64861;47.546;19.254;2023-03-19T06:28:06;5.50;;;2.50;;
74620;SDS011;64861;47.546;19.254;2023-03-19T06:30:31;4.25;;;2.33;;
74620;SDS011;64861;47.546;19.254;2023-03-19T06:32:58;6.53;;;2.20;;
74620;SDS011;64861;47.546;19.254;2023-03-19T06:35:23;6.00;;;2.30;;
74620;SDS011;64861;47.546;19.254;2023-03-19T06:37:49;4.03;;;2.20;;
74620;SDS011;64861;47.546;19.254;2023-03-19T06:40:15;4.75;;;2.50;;
74620;SDS011;64861;47.546;19.254;2023-03-19T06:42:43;4.88;;;2.50;;
74620;SDS011;64861;47.546;19.254;2023-03-19T06:45:10;4.15;;;2.35;;
74620;SDS011;64861;47.546;19.254;2023-03-19T06:47:39;4.47;;;2.38;;
74620;SDS011;64861;47.546;19.254;2023-03-19T06:50:05;6.55;;;2.65;;
74620;SDS011;64861;47.546;19.254;2023-03-19T06:52:31;4.72;;;2.17;;
74620;SDS011;64861;47.546;19.254;2023-03-19T06:54:56;4.57;;;2.22;;
74620;SDS011;64861;47.546;19.254;2023-03-19T06:57:22;5.70;;;2.50;;
74620;SDS011;64861;47.546;19.254;2023-03-19T06:59:47;8.07;;;2.03;;
74620;SDS011;64861;47.546;19.254;2023-03-19T07:02:13;5.30;;;2.40;;
74620;SDS011;64861;47.546;19.254;2023-03-19T07:04:39;5.00;;;2.08;;
74620;SDS011;64861;47.546;19.254;2023-03-19T07:07:04;11.90;;;2.80;;
74620;SDS011;64861;47.546;19.254;2023-03-19T07:09:30;15.07;;;2.50;;
74620;SDS011;64861;47.546;19.254;2023-03-19T07:11:56;9.88;;;2.33;;
74620;SDS011;64861;47.546;19.254;2023-03-19T07:14:23;8.75;;;2.47;;
74620;SDS011;64861;47.546;19.254;2023-03-19T07:16:48;13.35;;;2.80;;
74620;SDS011;64861;47.546;19.254;2023-03-19T07:19:14;23.88;;;3.55;;
74620;SDS011;64861;47.546;19.254;2023-03-19T07:21:39;13.45;;;2.55;;
74620;SDS011;64861;47.546;19.254;2023-03-19T07:24:05;17.10;;;2.88;;
74620;SDS011;64861;47.546;19.254;2023-03-19T07:26:31;16.35;;;3.00;;
74620;SDS011;64861;47.546;19.254;2023-03-19T07:28:57;14.35;;;3.13;;
74620;SDS011;64861;47.546;19.254;2023-03-19T07:31:22;11.35;;;2.78;;
74620;SDS011;64861;47.546;19.254;2023-03-19T07:33:48;13.85;;;2.55;;
74620;SDS011;64861;47.546;19.254;2023-03-19T07:36:13;19.85;;;2.95;;
74620;SDS011;64861;47.546;19.254;2023-03-19T07:38:38;14.68;;;3.17;;
74620;SDS011;64861;47.546;19.254;2023-03-19T07:41:04;12.80;;;2.50;;
74620;SDS011;64861;47.546;19.254;2023-03-19T07:43:29;11.05;;;2.78;;
74620;SDS011;64861;47.546;19.254;2023-03-19T07:45:55;17.88;;;2.92;;
74620;SDS011;64861;47.546;19.254;2023-03-19T07:48:21;22.65;;;2.92;;
74620;SDS011;64861;47.546;19.254;2023-03-19T07:50:48;10.65;;;2.80;;
74620;SDS011;64861;47.546;19.254;2023-03-19T07:53:15;8.02;;;2.53;;
74620;SDS011;64861;47.546;19.254;2023-03-19T07:55:41;15.70;;;2.95;;
74620;SDS011;64861;47.546;19.254;2023-03-19T07:58:06;8.85;;;2.92;;
74620;SDS011;64861;47.546;19.254;2023-03-19T08:00:32;7.38;;;2.58;;
74620;SDS011;64861;47.546;19.254;2023-03-19T08:02:57;11.77;;;2.80;;
74620;SDS011;64861;47.546;19.254;2023-03-19T08:05:23;11.57;;;2.83;;
74620;SDS011;64861;47.546;19.254;2023-03-19T08:07:48;18.92;;;2.55;;
74620;SDS011;64861;47.546;19.254;2023-03-19T08:10:15;10.05;;;2.53;;
74620;SDS011;64861;47.546;19.254;2023-03-19T08:12:41;10.18;;;2.80;;
74620;SDS011;64861;47.546;19.254;2023-03-19T08:15:07;10.73;;;2.80;;
74620;SDS011;64861;47.546;19.254;2023-03-19T08:17:36;9.27;;;2.33;;
74620;SDS011;64861;47.546;19.254;2023-03-19T08:20:12;16.90;;;2.67;;
74620;SDS011;64861;47.546;19.254;2023-03-19T08:22:42;8.05;;;2.35;;
74620;SDS011;64861;47.546;19.254;2023-03-19T08:25:08;13.25;;;2.80;;
74620;SDS011;64861;47.546;19.254;2023-03-19T08:27:34;13.32;;;2.75;;
74620;SDS011;64861;47.546;19.254;2023-03-19T08:30:01;9.63;;;2.55;;
74620;SDS011;64861;47.546;19.254;2023-03-19T08:32:28;14.30;;;2.47;;
74620;SDS011;64861;47.546;19.254;2023-03-19T08:34:53;12.63;;;2.35;;
74620;SDS011;64861;47.546;19.254;2023-03-19T08:37:19;14.07;;;2.45;;
74620;SDS011;64861;47.546;19.254;2023-03-19T08:39:45;12.57;;;2.33;;
74620;SDS011;64861;47.546;19.254;2023-03-19T08:42:10;14.73;;;2.38;;
74620;SDS011;64861;47.546;19.254;2023-03-19T08:44:36;13.45;;;2.63;;
74620;SDS011;64861;47.546;19.254;2023-03-19T08:47:02;12.10;;;2.17;;
74620;SDS011;64861;47.546;19.254;2023-03-19T08:49:27;12.77;;;2.50;;
74620;SDS011;64861;47.546;19.254;2023-03-19T08:51:53;10.23;;;2.58;;
74620;SDS011;64861;47.546;19.254;2023-03-19T08:54:18;8.88;;;2.30;;
74620;SDS011;64861;47.546;19.254;2023-03-19T08:56:44;6.88;;;2.30;;
74620;SDS011;64861;47.546;19.254;2023-03-19T08:59:10;7.53;;;2.15;;
74620;SDS011;64861;47.546;19.254;2023-03-19T09:01:35;10.45;;;2.80;;
74620;SDS011;64861;47.546;19.254;2023-03-19T09:04:01;5.57;;;2.20;;
74620;SDS011;64861;47.546;19.254;2023-03-19T09:06:26;9.65;;;2.22;;
74620;SDS011;64861;47.546;19.254;2023-03-19T09:08:53;8.07;;;2.40;;
74620;SDS011;64861;47.546;19.254;2023-03-19T09:11:18;6.75;;;1.95;;
74620;SDS011;64861;47.546;19.254;2023-03-19T09:13:44;7.50;;;2.55;;
74620;SDS011;64861;47.546;19.254;2023-03-19T09:16:09;14.68;;;5.60;;
74620;SDS011;64861;47.546;19.254;2023-03-19T09:18:35;16.30;;;7.57;;
74620;SDS011;64861;47.546;19.254;2023-03-19T09:21:01;21.27;;;9.57;;
74620;SDS011;64861;47.546;19.254;2023-03-19T09:23:27;20.55;;;11.95;;
74620;SDS011;64861;47.546;19.254;2023-03-19T09:25:53;42.63;;;22.20;;
74620;SDS011;64861;47.546;19.254;2023-03-19T09:28:18;34.58;;;19.67;;
74620;SDS011;64861;47.546;19.254;2023-03-19T09:30:45;23.73;;;13.10;;
74620;SDS011;64861;47.546;19.254;2023-03-19T09:33:11;22.38;;;13.52;;
74620;SDS011;64861;47.546;19.254;2023-03-19T09:35:37;25.50;;;14.18;;
74620;SDS011;64861;47.546;19.254;2023-03-19T09:38:03;33.15;;;15.05;;
74620;SDS011;64861;47.546;19.254;2023-03-19T09:40:33;31.25;;;17.10;;
74620;SDS011;64861;47.546;19.254;2023-03-19T09:45:27;27.23;;;14.88;;
74620;SDS011;64861;47.546;19.254;2023-03-19T09:47:57;27.20;;;15.15;;
74620;SDS011;64861;47.546;19.254;2023-03-19T09:50:35;32.75;;;14.95;;
74620;SDS011;64861;47.546;19.254;2023-03-19T09:55:43;30.77;;;13.10;;
74620;SDS011;64861;47.546;19.254;2023-03-19T09:58:17;32.45;;;13.20;;
74620;SDS011;64861;47.546;19.254;2023-03-19T10:00:45;31.35;;;12.30;;
74620;SDS011;64861;47.546;19.254;2023-03-19T10:14:08;17.17;;;7.50;;
74620;SDS011;64861;47.546;19.254;2023-03-19T10:16:58;19.42;;;7.75;;
74620;SDS011;64861;47.546;19.254;2023-03-19T10:19:36;20.92;;;8.13;;
74620;SDS011;64861;47.546;19.254;2023-03-19T10:22:14;23.30;;;7.75;;
74620;SDS011;64861;47.546;19.254;2023-03-19T10:24:46;18.00;;;7.65;;
74620;SDS011;64861;47.546;19.254;2023-03-19T10:27:15;16.52;;;6.68;;
74620;SDS011;64861;47.546;19.254;2023-03-19T10:29:42;13.48;;;5.78;;
74620;SDS011;64861;47.546;19.254;2023-03-19T10:32:26;15.38;;;5.60;;
74620;SDS011;64861;47.546;19.254;2023-03-19T10:35:00;16.20;;;6.57;;
74620;SDS011;64861;47.546;19.254;2023-03-19T10:37:33;16.50;;;6.05;;
74620;SDS011;64861;47.546;19.254;2023-03-19T10:40:00;13.65;;;5.40;;
74620;SDS011;64861;47.546;19.254;2023-03-19T10:47:57;11.77;;;5.40;;
74620;SDS011;64861;47.546;19.254;2023-03-19T10:56:02;13.65;;;5.07;;
74620;SDS011;64861;47.546;19.254;2023-03-19T10:58:40;10.18;;;5.00;;
74620;SDS011;64861;47.546;19.254;2023-03-19T11:01:34;14.63;;;4.70;;
74620;SDS011;64861;47.546;19.254;2023-03-19T11:04:10;12.15;;;5.18;;
74620;SDS011;64861;47.546;19.254;2023-03-19T11:06:41;13.45;;;4.60;;
74620;SDS011;64861;47.546;19.254;2023-03-19T11:09:18;10.82;;;4.50;;
74620;SDS011;64861;47.546;19.254;2023-03-19T11:12:36;12.80;;;4.90;;
74620;SDS011;64861;47.546;19.254;2023-03-19T11:14:41;12.00;;;5.07;;
74620;SDS011;64861;47.546;19.254;2023-03-19T11:17:18;11.32;;;4.22;;
74620;SDS011;64861;47.546;19.254;2023-03-19T11:19:50;11.73;;;4.22;;
74620;SDS011;64861;47.546;19.254;2023-03-19T11:22:30;14.68;;;4.85;;
74620;SDS011;64861;47.546;19.254;2023-03-19T11:25:00;10.75;;;4.32;;
74620;SDS011;64861;47.546;19.254;2023-03-19T11:27:44;10.73;;;4.28;;
74620;SDS011;64861;47.546;19.254;2023-03-19T11:30:48;13.65;;;4.25;;
74620;SDS011;64861;47.546;19.254;2023-03-19T11:36:27;10.05;;;3.92;;
74620;SDS011;64861;47.546;19.254;2023-03-19T11:44:24;10.30;;;4.03;;
74620;SDS011;64861;47.546;19.254;2023-03-19T11:46:59;9.48;;;3.72;;
74620;SDS011;64861;47.546;19.254;2023-03-19T11:52:24;7.88;;;3.72;;
74620;SDS011;64861;47.546;19.254;2023-03-19T12:00:29;9.18;;;3.72;;
74620;SDS011;64861;47.546;19.254;2023-03-19T12:14:50;8.13;;;3.25;;
74620;SDS011;64861;47.546;19.254;2023-03-19T12:29:16;10.20;;;3.72;;
74620;SDS011;64861;47.546;19.254;2023-03-19T12:31:32;9.15;;;3.10;;
74620;SDS011;64861;47.546;19.254;2023-03-19T12:36:30;8.98;;;3.45;;
74620;SDS011;64861;47.546;19.254;2023-03-19T12:39:02;9.40;;;3.10;;
74620;SDS011;64861;47.546;19.254;2023-03-19T12:41:31;7.78;;;3.38;;
74620;SDS011;64861;47.546;19.254;2023-03-19T12:51:33;10.35;;;3.13;;
74620;SDS011;64861;47.546;19.254;2023-03-19T13:01:50;9.15;;;2.92;;
74620;SDS011;64861;47.546;19.254;2023-03-19T13:04:42;9.93;;;2.97;;
74620;SDS011;64861;47.546;19.254;2023-03-19T13:07:45;7.35;;;2.58;;
74620;SDS011;64861;47.546;19.254;2023-03-19T13:10:20;10.20;;;3.15;;
74620;SDS011;64861;47.546;19.254;2023-03-19T13:12:46;7.00;;;3.20;;
74620;SDS011;64861;47.546;19.254;2023-03-19T13:20:49;6.32;;;2.63;;
74620;SDS011;64861;47.546;19.254;2023-03-19T13:23:21;7.88;;;2.97;;
74620;SDS011;64861;47.546;19.254;2023-03-19T13:25:51;6.70;;;2.72;;
74620;SDS011;64861;47.546;19.254;2023-03-19T13:28:28;8.27;;;2.80;;
74620;SDS011;64861;47.546;19.254;2023-03-19T13:33:29;6.97;;;3.00;;
74620;SDS011;64861;47.546;19.254;2023-03-19T13:35:56;6.65;;;2.70;;
74620;SDS011;64861;47.546;19.254;2023-03-19T13:38:31;8.90;;;2.83;;
74620;SDS011;64861;47.546;19.254;2023-03-19T13:41:03;7.95;;;2.90;;
74620;SDS011;64861;47.546;19.254;2023-03-19T13:48:49;6.35;;;2.63;;
74620;SDS011;64861;47.546;19.254;2023-03-19T13:53:52;7.82;;;2.75;;
74620;SDS011;64861;47.546;19.254;2023-03-19T13:56:17;8.48;;;2.60;;
74620;SDS011;64861;47.546;19.254;2023-03-19T13:58:45;8.10;;;2.45;;
74620;SDS011;64861;47.546;19.254;2023-03-19T14:03:56;7.82;;;2.53;;
74620;SDS011;64861;47.546;19.254;2023-03-19T14:06:40;6.20;;;2.50;;
74620;SDS011;64861;47.546;19.254;2023-03-19T14:17:35;6.90;;;2.50;;
74620;SDS011;64861;47.546;19.254;2023-03-19T14:20:49;6.68;;;2.42;;
74620;SDS011;64861;47.546;19.254;2023-03-19T14:28:45;10.63;;;2.67;;
74620;SDS011;64861;47.546;19.254;2023-03-19T14:31:22;7.50;;;2.10;;
74620;SDS011;64861;47.546;19.254;2023-03-19T14:33:55;11.48;;;2.90;;
74620;SDS011;64861;47.546;19.254;2023-03-19T14:36:26;14.15;;;2.67;;
74620;SDS011;64861;47.546;19.254;2023-03-19T14:38:56;16.45;;;2.30;;
74620;SDS011;64861;47.546;19.254;2023-03-19T14:41:22;8.75;;;2.65;;
74620;SDS011;64861;47.546;19.254;2023-03-19T14:52:01;6.07;;;2.30;;
74620;SDS011;64861;47.546;19.254;2023-03-19T14:54:39;8.15;;;2.30;;
74620;SDS011;64861;47.546;19.254;2023-03-19T14:57:26;8.70;;;2.70;;
74620;SDS011;64861;47.546;19.254;2023-03-19T14:59:53;8.45;;;2.58;;
74620;SDS011;64861;47.546;19.254;2023-03-19T15:05:35;10.10;;;2.80;;
74620;SDS011;64861;47.546;19.254;2023-03-19T15:07:58;5.35;;;2.22;;
74620;SDS011;64861;47.546;19.254;2023-03-19T15:10:27;6.47;;;2.38;;
74620;SDS011;64861;47.546;19.254;2023-03-19T15:15:38;7.63;;;3.08;;
74620;SDS011;64861;47.546;19.254;2023-03-19T15:18:13;8.70;;;2.40;;
74620;SDS011;64861;47.546;19.254;2023-03-19T15:20:43;5.90;;;2.10;;
74620;SDS011;64861;47.546;19.254;2023-03-19T15:23:17;5.72;;;2.55;;
74620;SDS011;64861;47.546;19.254;2023-03-19T15:25:44;6.85;;;2.40;;
74620;SDS011;64861;47.546;19.254;2023-03-19T15:28:12;6.20;;;2.38;;
74620;SDS011;64861;47.546;19.254;2023-03-19T15:30:38;4.75;;;2.05;;
74620;SDS011;64861;47.546;19.254;2023-03-19T15:33:17;7.95;;;2.10;;
74620;SDS011;64861;47.546;19.254;2023-03-19T15:35:57;6.07;;;2.15;;
74620;SDS011;64861;47.546;19.254;2023-03-19T15:38:27;6.13;;;2.30;;
74620;SDS011;64861;47.546;19.254;2023-03-19T15:40:57;5.30;;;2.17;;
74620;SDS011;64861;47.546;19.254;2023-03-19T15:43:23;6.15;;;2.17;;
74620;SDS011;64861;47.546;19.254;2023-03-19T15:45:50;5.20;;;2.25;;
74620;SDS011;64861;47.546;19.254;2023-03-19T15:48:19;4.63;;;2.03;;
74620;SDS011;64861;47.546;19.254;2023-03-19T15:50:49;7.90;;;2.70;;
74620;SDS011;64861;47.546;19.254;2023-03-19T15:53:20;9.02;;;2.45;;
74620;SDS011;64861;47.546;19.254;2023-03-19T15:55:48;9.80;;;2.30;;
74620;SDS011;64861;47.546;19.254;2023-03-19T15:58:16;6.65;;;2.00;;
74620;SDS011;64861;47.546;19.254;2023-03-19T16:00:45;9.35;;;2.33;;
74620;SDS011;64861;47.546;19.254;2023-03-19T16:03:15;9.27;;;2.40;;
74620;SDS011;64861;47.546;19.254;2023-03-19T16:05:50;9.48;;;2.20;;
74620;SDS011;64861;47.546;19.254;2023-03-19T16:08:24;5.47;;;2.03;;
74620;SDS011;64861;47.546;19.254;2023-03-19T16:10:50;7.03;;;2.30;;
74620;SDS011;64861;47.546;19.254;2023-03-19T16:13:59;7.80;;;2.03;;
74620;SDS011;64861;47.546;19.254;2023-03-19T16:18:48;5.90;;;1.83;;
74620;SDS011;64861;47.546;19.254;2023-03-19T16:21:16;4.40;;;1.83;;
74620;SDS011;64861;47.546;19.254;2023-03-19T16:23:49;5.75;;;1.85;;
74620;SDS011;64861;47.546;19.254;2023-03-19T16:28:46;8.52;;;2.00;;
74620;SDS011;64861;47.546;19.254;2023-03-19T16:31:26;11.77;;;2.40;;
74620;SDS011;64861;47.546;19.254;2023-03-19T16:33:55;8.18;;;2.17;;
74620;SDS011;64861;47.546;19.254;2023-03-19T16:36:22;5.43;;;2.10;;
74620;SDS011;64861;47.546;19.254;2023-03-19T16:38:52;5.95;;;2.00;;
74620;SDS011;64861;47.546;19.254;2023-03-19T16:43:51;5.03;;;2.45;;
74620;SDS011;64861;47.546;19.254;2023-03-19T16:46:18;6.55;;;2.25;;
74620;SDS011;64861;47.546;19.254;2023-03-19T16:48:43;8.27;;;2.05;;
74620;SDS011;64861;47.546;19.254;2023-03-19T16:51:13;6.40;;;2.20;;
74620;SDS011;64861;47.546;19.254;2023-03-19T16:53:41;6.93;;;2.00;;
74620;SDS011;64861;47.546;19.254;2023-03-19T16:56:08;6.65;;;2.20;;
74620;SDS011;64861;47.546;19.254;2023-03-19T16:58:38;4.78;;;2.10;;
74620;SDS011;64861;47.546;19.254;2023-03-19T17:01:25;6.00;;;2.28;;